createdAt,value
2023-02-08T00:02:52.636Z,17.15
2023-02-08T00:08:14.581Z,16.98
2023-02-08T00:13:38.346Z,17.65
2023-02-08T00:19:01.117Z,16.77
2023-02-08T00:24:22.973Z,18.30
2023-02-08T00:29:44.855Z,17.77
2023-02-08T00:35:07.121Z,16.48
2023-02-08T00:40:28.999Z,16.77
2023-02-08T00:45:55.556Z,16.55
2023-02-08T00:51:17.531Z,15.38
2023-02-08T00:56:39.403Z,17.85
2023-02-08T01:02:01.398Z,16.80
2023-02-08T01:07:23.330Z,16.42
2023-02-08T01:12:45.212Z,18.30
2023-02-08T01:18:07.105Z,16.55
2023-02-08T01:23:29.023Z,17.90
2023-02-08T01:28:51.616Z,16.02
2023-02-08T01:34:13.657Z,16.63
2023-02-08T01:39:36.895Z,16.13
2023-02-08T01:45:17.036Z,16.15
2023-02-08T01:50:50.443Z,16.55
2023-02-08T01:56:18.304Z,15.88
2023-02-08T02:01:41.733Z,16.92
2023-02-08T02:07:05.000Z,16.40
2023-02-08T02:12:27.886Z,15.73
2023-02-08T02:17:50.079Z,16.73
2023-02-08T02:23:33.369Z,15.82
2023-02-08T02:29:19.300Z,16.90
2023-02-08T02:34:50.407Z,17.35
2023-02-08T02:40:39.910Z,19.98
2023-02-08T02:46:08.941Z,18.33
2023-02-08T02:51:54.168Z,19.65
2023-02-08T02:57:22.087Z,18.20
2023-02-08T03:02:43.924Z,18.00
2023-02-08T03:08:50.085Z,17.52
2023-02-08T03:14:24.054Z,19.20
2023-02-08T03:20:07.061Z,20.63
2023-02-08T03:26:05.924Z,19.17
2023-02-08T03:31:56.162Z,18.17
2023-02-08T03:37:50.050Z,18.38
2023-02-08T03:43:30.379Z,19.60
2023-02-08T03:48:58.944Z,18.52
2023-02-08T03:54:26.114Z,19.63
2023-02-08T03:59:56.827Z,20.73
2023-02-08T04:05:19.629Z,19.95
2023-02-08T04:10:41.882Z,19.88
2023-02-08T04:16:04.124Z,20.63
2023-02-08T04:21:26.017Z,19.73
2023-02-08T04:26:47.901Z,22.25
2023-02-08T04:32:09.835Z,22.88
2023-02-08T04:37:31.873Z,21.77
2023-02-08T04:42:53.709Z,23.10
2023-02-08T04:48:15.566Z,26.13
2023-02-08T04:53:37.480Z,23.50
2023-02-08T04:58:59.459Z,25.85
2023-02-08T05:04:21.361Z,24.33
2023-02-08T05:09:43.297Z,25.75
2023-02-08T05:15:05.393Z,25.85
2023-02-08T05:20:27.297Z,24.88
2023-02-08T05:25:49.239Z,24.48
2023-02-08T05:31:13.959Z,26.52
2023-02-08T05:36:35.946Z,24.83
2023-02-08T05:41:57.841Z,24.30
2023-02-08T05:47:19.739Z,23.95
2023-02-08T05:52:41.884Z,23.67
2023-02-08T05:58:03.857Z,23.00
2023-02-08T06:03:25.788Z,25.35
2023-02-08T06:08:47.885Z,23.92
2023-02-08T06:14:09.995Z,23.40
2023-02-08T06:19:31.842Z,23.98
2023-02-08T06:24:53.691Z,22.67
2023-02-08T06:30:15.701Z,23.50
2023-02-08T06:35:37.578Z,22.73
2023-02-08T06:40:59.464Z,22.38
2023-02-08T06:46:21.352Z,19.75
2023-02-08T06:51:43.218Z,21.90
2023-02-08T06:57:05.149Z,21.23
2023-02-08T07:02:27.054Z,20.90
2023-02-08T07:07:48.949Z,23.52
2023-02-08T07:13:11.037Z,20.80
2023-02-08T07:18:33.817Z,21.38
2023-02-08T07:23:55.729Z,17.15
2023-02-08T07:29:17.739Z,20.05
2023-02-08T07:34:39.875Z,18.42
2023-02-08T07:40:01.772Z,18.27
2023-02-08T07:45:23.791Z,17.80
2023-02-08T07:50:45.669Z,18.95
2023-02-08T07:56:07.630Z,18.23
2023-02-08T08:01:29.654Z,17.77
2023-02-08T08:06:51.591Z,15.07
2023-02-08T08:12:13.505Z,14.60
2023-02-08T08:17:35.370Z,16.23
2023-02-08T08:22:58.234Z,14.23
2023-02-08T08:28:20.232Z,14.35
2023-02-08T08:33:42.470Z,14.40
2023-02-08T08:39:04.417Z,12.90
2023-02-08T08:44:26.730Z,14.00
2023-02-08T08:49:48.601Z,14.50
2023-02-08T08:55:10.504Z,15.63
2023-02-08T09:00:32.414Z,16.02
2023-02-08T09:05:54.358Z,16.23
2023-02-08T09:11:16.482Z,16.80
2023-02-08T09:16:40.897Z,17.70
2023-02-08T09:22:02.766Z,18.73
2023-02-08T09:27:24.641Z,17.05
2023-02-08T09:32:46.507Z,15.95
2023-02-08T09:38:08.357Z,18.08
2023-02-08T09:43:41.363Z,16.17
2023-02-08T09:49:08.843Z,14.18
2023-02-08T09:54:37.829Z,14.45
2023-02-08T10:00:09.886Z,14.40
2023-02-08T10:05:32.039Z,14.90
2023-02-08T10:10:58.248Z,14.90
2023-02-08T10:16:58.604Z,13.85
2023-02-08T10:22:47.133Z,12.80
2023-02-08T10:28:30.822Z,10.65
2023-02-08T10:34:03.562Z,10.55
2023-02-08T10:39:35.325Z,8.98
2023-02-08T10:45:08.240Z,8.98
2023-02-08T10:50:34.622Z,8.63
2023-02-08T10:55:56.543Z,8.13
2023-02-08T11:01:18.753Z,7.15
2023-02-08T11:06:42.733Z,6.43
2023-02-08T11:12:04.690Z,3.55
2023-02-08T11:17:33.013Z,3.42
2023-02-08T11:22:54.978Z,3.17
2023-02-08T11:28:29.902Z,2.60
2023-02-08T11:34:07.306Z,3.50
2023-02-08T11:39:40.411Z,3.60
2023-02-08T11:45:03.543Z,4.40
2023-02-08T11:50:30.681Z,3.90
2023-02-08T11:56:03.194Z,3.47
2023-02-08T12:01:31.118Z,3.55
2023-02-08T12:07:14.525Z,3.25
2023-02-08T12:12:51.321Z,3.60
2023-02-08T12:18:51.001Z,4.53
2023-02-08T12:24:30.975Z,4.90
2023-02-08T12:30:18.987Z,5.15
2023-02-08T12:36:05.952Z,6.28
2023-02-08T12:41:34.143Z,5.75
2023-02-08T12:47:09.725Z,5.72
2023-02-08T12:52:42.644Z,4.67
2023-02-08T12:58:39.506Z,4.68
2023-02-08T13:04:08.683Z,4.95
2023-02-08T13:09:35.365Z,4.97
2023-02-08T13:15:28.531Z,5.30
2023-02-08T13:20:56.828Z,8.77
2023-02-08T13:26:23.880Z,5.15
2023-02-08T13:31:53.075Z,4.05
2023-02-08T13:37:26.687Z,4.65
2023-02-08T13:43:35.706Z,4.97
2023-02-08T13:48:59.297Z,5.40
2023-02-08T13:54:23.903Z,6.80
2023-02-08T14:00:23.953Z,5.03
2023-02-08T14:05:45.925Z,5.50
2023-02-08T14:11:16.919Z,5.68
2023-02-08T14:16:44.450Z,6.00
2023-02-08T14:22:12.327Z,5.53
2023-02-08T14:27:42.168Z,4.88
2023-02-08T14:33:06.988Z,5.25
2023-02-08T14:38:50.176Z,5.93
2023-02-08T14:44:39.769Z,4.93
2023-02-08T14:50:12.474Z,6.00
2023-02-08T14:55:43.790Z,5.82
2023-02-08T15:01:17.913Z,6.60
2023-02-08T15:06:39.800Z,6.72
2023-02-08T15:12:04.087Z,6.68
2023-02-08T15:17:38.764Z,6.78
2023-02-08T15:23:18.002Z,7.30
2023-02-08T15:28:44.514Z,7.47
2023-02-08T15:39:28.078Z,6.97
2023-02-08T15:44:50.333Z,7.88
2023-02-08T15:50:18.874Z,8.15
2023-02-08T15:55:48.910Z,7.55
2023-02-08T16:01:18.155Z,8.60
2023-02-08T16:06:50.023Z,7.82
2023-02-08T16:12:20.901Z,8.70
2023-02-08T16:17:45.790Z,8.70
2023-02-08T16:23:27.689Z,7.93
2023-02-08T16:28:56.406Z,8.98
2023-02-08T16:34:19.205Z,11.45
2023-02-08T16:40:18.482Z,9.68
2023-02-08T16:45:40.512Z,9.52
2023-02-08T16:51:05.026Z,10.60
2023-02-08T16:56:27.011Z,10.60
2023-02-08T17:01:48.903Z,10.60
2023-02-08T17:07:19.760Z,11.98
2023-02-08T18:38:50.260Z,16.35
2023-02-08T18:44:12.111Z,17.83
2023-02-08T18:49:34.716Z,18.45
2023-02-08T18:54:56.562Z,17.40
2023-02-08T19:00:18.921Z,22.38
2023-02-08T19:05:41.090Z,25.60
2023-02-08T19:11:17.899Z,28.90
2023-02-08T19:16:40.223Z,29.88
2023-02-08T19:22:02.194Z,29.95
2023-02-08T19:27:24.048Z,31.75
2023-02-08T19:32:46.072Z,29.35
2023-02-08T19:38:07.932Z,27.98
2023-02-08T19:43:29.985Z,30.08
2023-02-08T19:48:53.277Z,31.90
2023-02-08T19:54:17.701Z,33.53
2023-02-08T19:59:39.557Z,38.45
2023-02-08T20:05:01.459Z,42.33
2023-02-08T20:10:23.356Z,43.63
2023-02-08T20:15:46.285Z,46.92
2023-02-08T20:21:08.621Z,51.35
2023-02-08T20:26:30.477Z,51.65
2023-02-08T20:31:52.547Z,49.20
2023-02-08T20:37:14.430Z,54.70
2023-02-08T20:42:36.277Z,51.85
2023-02-08T20:47:58.119Z,51.17
2023-02-08T20:53:20.007Z,50.22
2023-02-08T20:58:42.302Z,50.65
2023-02-08T21:04:04.689Z,50.10
2023-02-08T21:09:26.789Z,51.28
2023-02-08T21:14:48.697Z,49.95
2023-02-08T21:20:12.058Z,47.53
2023-02-08T21:25:34.051Z,47.40
2023-02-08T21:31:01.808Z,48.42
2023-02-08T21:36:24.522Z,47.75
2023-02-08T21:41:46.563Z,51.20
2023-02-08T21:47:08.394Z,48.15
2023-02-08T21:52:30.220Z,49.10
2023-02-08T21:57:52.099Z,46.78
2023-02-08T22:03:14.145Z,47.20
2023-02-08T22:08:36.710Z,46.97
2023-02-08T22:13:58.624Z,46.05
2023-02-08T22:19:20.740Z,48.05
2023-02-08T22:24:42.624Z,47.15
2023-02-08T22:30:06.056Z,44.63
2023-02-08T22:35:28.042Z,45.28
2023-02-08T22:40:49.960Z,43.65
2023-02-08T22:46:12.639Z,45.55
2023-02-08T22:51:34.533Z,47.38
2023-02-08T22:56:56.526Z,47.08
2023-02-08T23:02:18.867Z,46.78
2023-02-08T23:07:40.740Z,44.33
2023-02-08T23:13:03.929Z,44.35
2023-02-08T23:18:26.218Z,43.60
2023-02-08T23:23:48.614Z,42.47
2023-02-08T23:29:10.438Z,40.22
2023-02-08T23:34:34.646Z,38.63
2023-02-08T23:39:56.485Z,37.72
2023-02-08T23:45:18.382Z,38.15
2023-02-08T23:50:40.418Z,35.75
2023-02-08T23:56:14.251Z,34.72
